sensor_id;sensor_type;location;lat;lon;timestamp;P1;durP1;ratioP1;P2;durP2;ratioP2
77802;SDS011;66993;48.256;16.422;2023-07-31T00:04:05;4.1;;;2.3;;
77802;SDS011;66993;48.256;16.422;2023-07-31T00:09:06;4.7;;;2.1;;
77802;SDS011;66993;48.256;16.422;2023-07-31T00:14:08;5.5;;;2.3;;
77802;SDS011;66993;48.256;16.422;2023-07-31T00:19:09;4.9;;;2.1;;
77802;SDS011;66993;48.256;16.422;2023-07-31T00:24:10;4.1;;;2.1;;
77802;SDS011;66993;48.256;16.422;2023-07-31T00:29:12;4.2;;;2.3;;
77802;SDS011;66993;48.256;16.422;2023-07-31T00:34:13;4.6;;;2.3;;
77802;SDS011;66993;48.256;16.422;2023-07-31T00:39:14;3.3;;;1.9;;
77802;SDS011;66993;48.256;16.422;2023-07-31T00:44:16;4.0;;;2.3;;
77802;SDS011;66993;48.256;16.422;2023-07-31T00:49:17;4.3;;;2.3;;
77802;SDS011;66993;48.256;16.422;2023-07-31T00:54:18;4.4;;;2.3;;
77802;SDS011;66993;48.256;16.422;2023-07-31T00:59:19;5.3;;;2.4;;
77802;SDS011;66993;48.256;16.422;2023-07-31T01:04:21;5.0;;;2.3;;
77802;SDS011;66993;48.256;16.422;2023-07-31T01:09:27;4.5;;;2.3;;
77802;SDS011;66993;48.256;16.422;2023-07-31T01:14:23;4.5;;;2.3;;
77802;SDS011;66993;48.256;16.422;2023-07-31T01:19:25;4.3;;;2.3;;
77802;SDS011;66993;48.256;16.422;2023-07-31T01:24:28;5.5;;;2.2;;
77802;SDS011;66993;48.256;16.422;2023-07-31T01:29:30;5.1;;;2.1;;
77802;SDS011;66993;48.256;16.422;2023-07-31T01:34:29;3.0;;;1.9;;
77802;SDS011;66993;48.256;16.422;2023-07-31T01:39:30;4.8;;;2.4;;
77802;SDS011;66993;48.256;16.422;2023-07-31T01:44:31;4.4;;;2.3;;
77802;SDS011;66993;48.256;16.422;2023-07-31T01:49:32;3.9;;;2.1;;
77802;SDS011;66993;48.256;16.422;2023-07-31T01:54:34;4.7;;;2.3;;
77802;SDS011;66993;48.256;16.422;2023-07-31T01:59:35;4.1;;;2.0;;
77802;SDS011;66993;48.256;16.422;2023-07-31T02:04:36;5.7;;;2.3;;
77802;SDS011;66993;48.256;16.422;2023-07-31T02:09:37;4.4;;;2.2;;
77802;SDS011;66993;48.256;16.422;2023-07-31T02:14:39;4.2;;;2.3;;
77802;SDS011;66993;48.256;16.422;2023-07-31T02:19:40;4.6;;;2.1;;
77802;SDS011;66993;48.256;16.422;2023-07-31T02:24:41;3.9;;;2.3;;
77802;SDS011;66993;48.256;16.422;2023-07-31T02:29:43;4.5;;;2.4;;
77802;SDS011;66993;48.256;16.422;2023-07-31T02:34:44;5.2;;;2.2;;
77802;SDS011;66993;48.256;16.422;2023-07-31T02:39:45;5.5;;;2.2;;
77802;SDS011;66993;48.256;16.422;2023-07-31T02:44:47;4.8;;;2.0;;
77802;SDS011;66993;48.256;16.422;2023-07-31T02:49:48;3.1;;;2.0;;
77802;SDS011;66993;48.256;16.422;2023-07-31T02:54:50;5.8;;;2.2;;
77802;SDS011;66993;48.256;16.422;2023-07-31T02:59:51;4.2;;;2.4;;
77802;SDS011;66993;48.256;16.422;2023-07-31T03:04:52;4.9;;;2.6;;
77802;SDS011;66993;48.256;16.422;2023-07-31T03:09:53;6.1;;;3.1;;
77802;SDS011;66993;48.256;16.422;2023-07-31T03:14:55;3.6;;;2.2;;
77802;SDS011;66993;48.256;16.422;2023-07-31T03:19:56;6.5;;;2.4;;
77802;SDS011;66993;48.256;16.422;2023-07-31T03:24:57;6.5;;;2.4;;
77802;SDS011;66993;48.256;16.422;2023-07-31T03:29:59;4.6;;;2.4;;
77802;SDS011;66993;48.256;16.422;2023-07-31T03:35:00;3.7;;;2.1;;
77802;SDS011;66993;48.256;16.422;2023-07-31T03:40:01;4.7;;;2.3;;
77802;SDS011;66993;48.256;16.422;2023-07-31T03:45:03;7.1;;;2.7;;
77802;SDS011;66993;48.256;16.422;2023-07-31T03:50:04;4.7;;;2.4;;
77802;SDS011;66993;48.256;16.422;2023-07-31T03:55:05;3.7;;;2.3;;
77802;SDS011;66993;48.256;16.422;2023-07-31T04:00:07;5.8;;;2.5;;
77802;SDS011;66993;48.256;16.422;2023-07-31T04:05:08;3.5;;;2.0;;
77802;SDS011;66993;48.256;16.422;2023-07-31T04:10:09;5.9;;;2.3;;
77802;SDS011;66993;48.256;16.422;2023-07-31T04:15:10;4.9;;;2.1;;
77802;SDS011;66993;48.256;16.422;2023-07-31T04:20:12;4.5;;;2.1;;
77802;SDS011;66993;48.256;16.422;2023-07-31T04:25:13;4.4;;;2.3;;
77802;SDS011;66993;48.256;16.422;2023-07-31T04:30:14;4.7;;;2.3;;
77802;SDS011;66993;48.256;16.422;2023-07-31T04:35:16;3.9;;;2.2;;
77802;SDS011;66993;48.256;16.422;2023-07-31T04:40:17;4.6;;;2.7;;
77802;SDS011;66993;48.256;16.422;2023-07-31T04:45:19;4.9;;;2.5;;
77802;SDS011;66993;48.256;16.422;2023-07-31T04:50:20;6.1;;;2.5;;
77802;SDS011;66993;48.256;16.422;2023-07-31T04:55:21;6.4;;;2.9;;
77802;SDS011;66993;48.256;16.422;2023-07-31T05:00:22;7.2;;;3.1;;
77802;SDS011;66993;48.256;16.422;2023-07-31T05:05:24;6.8;;;3.1;;
77802;SDS011;66993;48.256;16.422;2023-07-31T05:10:25;7.2;;;2.9;;
77802;SDS011;66993;48.256;16.422;2023-07-31T05:15:26;4.8;;;2.3;;
77802;SDS011;66993;48.256;16.422;2023-07-31T05:20:28;6.9;;;2.7;;
77802;SDS011;66993;48.256;16.422;2023-07-31T05:25:29;5.8;;;3.1;;
77802;SDS011;66993;48.256;16.422;2023-07-31T05:30:30;6.8;;;3.0;;
77802;SDS011;66993;48.256;16.422;2023-07-31T05:35:31;6.1;;;2.7;;
77802;SDS011;66993;48.256;16.422;2023-07-31T05:40:33;5.2;;;2.5;;
77802;SDS011;66993;48.256;16.422;2023-07-31T05:45:34;6.4;;;2.6;;
77802;SDS011;66993;48.256;16.422;2023-07-31T05:50:35;4.9;;;2.5;;
77802;SDS011;66993;48.256;16.422;2023-07-31T05:55:36;5.7;;;2.5;;
77802;SDS011;66993;48.256;16.422;2023-07-31T06:00:38;4.4;;;2.5;;
77802;SDS011;66993;48.256;16.422;2023-07-31T06:05:39;4.8;;;1.9;;
77802;SDS011;66993;48.256;16.422;2023-07-31T06:10:41;4.8;;;2.1;;
77802;SDS011;66993;48.256;16.422;2023-07-31T06:15:42;4.1;;;2.2;;
77802;SDS011;66993;48.256;16.422;2023-07-31T06:20:43;5.4;;;2.0;;
77802;SDS011;66993;48.256;16.422;2023-07-31T06:25:45;5.6;;;2.0;;
77802;SDS011;66993;48.256;16.422;2023-07-31T06:30:46;3.5;;;1.8;;
77802;SDS011;66993;48.256;16.422;2023-07-31T06:35:48;5.6;;;2.4;;
77802;SDS011;66993;48.256;16.422;2023-07-31T06:40:48;4.9;;;2.2;;
77802;SDS011;66993;48.256;16.422;2023-07-31T06:45:50;3.8;;;2.0;;
77802;SDS011;66993;48.256;16.422;2023-07-31T06:50:51;4.2;;;2.1;;
77802;SDS011;66993;48.256;16.422;2023-07-31T06:55:52;4.7;;;2.0;;
77802;SDS011;66993;48.256;16.422;2023-07-31T07:00:53;4.8;;;2.1;;
77802;SDS011;66993;48.256;16.422;2023-07-31T07:05:55;4.5;;;1.9;;
77802;SDS011;66993;48.256;16.422;2023-07-31T07:10:56;5.7;;;1.7;;
77802;SDS011;66993;48.256;16.422;2023-07-31T07:15:58;5.5;;;1.8;;
77802;SDS011;66993;48.256;16.422;2023-07-31T07:20:59;3.4;;;1.5;;
77802;SDS011;66993;48.256;16.422;2023-07-31T07:26:00;5.5;;;1.7;;
77802;SDS011;66993;48.256;16.422;2023-07-31T07:31:01;7.4;;;2.0;;
77802;SDS011;66993;48.256;16.422;2023-07-31T07:36:03;4.1;;;1.7;;
77802;SDS011;66993;48.256;16.422;2023-07-31T07:41:04;4.3;;;1.8;;
77802;SDS011;66993;48.256;16.422;2023-07-31T07:46:06;4.1;;;1.7;;
77802;SDS011;66993;48.256;16.422;2023-07-31T07:51:07;6.2;;;2.0;;
77802;SDS011;66993;48.256;16.422;2023-07-31T07:56:08;5.3;;;1.8;;
77802;SDS011;66993;48.256;16.422;2023-07-31T08:01:09;5.1;;;1.8;;
77802;SDS011;66993;48.256;16.422;2023-07-31T08:06:11;5.2;;;1.9;;
77802;SDS011;66993;48.256;16.422;2023-07-31T08:11:12;4.6;;;1.5;;
77802;SDS011;66993;48.256;16.422;2023-07-31T08:16:13;4.9;;;1.7;;
77802;SDS011;66993;48.256;16.422;2023-07-31T08:21:15;4.5;;;2.0;;
77802;SDS011;66993;48.256;16.422;2023-07-31T08:26:16;4.7;;;1.9;;
77802;SDS011;66993;48.256;16.422;2023-07-31T08:31:17;5.4;;;1.9;;
77802;SDS011;66993;48.256;16.422;2023-07-31T08:36:19;5.2;;;1.7;;
77802;SDS011;66993;48.256;16.422;2023-07-31T08:41:20;6.6;;;1.8;;
77802;SDS011;66993;48.256;16.422;2023-07-31T08:46:21;6.4;;;2.5;;
77802;SDS011;66993;48.256;16.422;2023-07-31T08:51:22;6.4;;;1.8;;
77802;SDS011;66993;48.256;16.422;2023-07-31T08:56:24;5.3;;;1.9;;
77802;SDS011;66993;48.256;16.422;2023-07-31T09:01:25;5.4;;;1.7;;
77802;SDS011;66993;48.256;16.422;2023-07-31T09:06:26;5.2;;;1.8;;
77802;SDS011;66993;48.256;16.422;2023-07-31T09:11:28;6.5;;;2.1;;
77802;SDS011;66993;48.256;16.422;2023-07-31T09:16:29;4.3;;;1.7;;
77802;SDS011;66993;48.256;16.422;2023-07-31T09:21:30;4.7;;;1.9;;
77802;SDS011;66993;48.256;16.422;2023-07-31T09:26:32;5.2;;;1.7;;
77802;SDS011;66993;48.256;16.422;2023-07-31T09:31:33;4.9;;;1.4;;
77802;SDS011;66993;48.256;16.422;2023-07-31T09:41:36;5.3;;;1.9;;
77802;SDS011;66993;48.256;16.422;2023-07-31T09:46:37;4.9;;;1.9;;
77802;SDS011;66993;48.256;16.422;2023-07-31T09:51:38;4.3;;;1.7;;
77802;SDS011;66993;48.256;16.422;2023-07-31T09:56:41;5.5;;;1.5;;
77802;SDS011;66993;48.256;16.422;2023-07-31T10:01:41;5.1;;;1.7;;
77802;SDS011;66993;48.256;16.422;2023-07-31T10:06:42;6.1;;;1.9;;
77802;SDS011;66993;48.256;16.422;2023-07-31T10:11:46;4.1;;;1.5;;
77802;SDS011;66993;48.256;16.422;2023-07-31T10:16:44;4.8;;;1.5;;
77802;SDS011;66993;48.256;16.422;2023-07-31T10:21:46;3.6;;;1.5;;
77802;SDS011;66993;48.256;16.422;2023-07-31T10:26:47;4.4;;;1.7;;
77802;SDS011;66993;48.256;16.422;2023-07-31T10:31:48;4.1;;;1.7;;
77802;SDS011;66993;48.256;16.422;2023-07-31T10:36:50;6.2;;;1.7;;
77802;SDS011;66993;48.256;16.422;2023-07-31T10:41:51;4.0;;;1.6;;
77802;SDS011;66993;48.256;16.422;2023-07-31T10:46:54;4.0;;;1.4;;
77802;SDS011;66993;48.256;16.422;2023-07-31T10:51:54;4.9;;;1.8;;
77802;SDS011;66993;48.256;16.422;2023-07-31T10:56:55;4.2;;;1.6;;
77802;SDS011;66993;48.256;16.422;2023-07-31T11:01:56;6.0;;;1.8;;
77802;SDS011;66993;48.256;16.422;2023-07-31T11:06:58;4.2;;;1.5;;
77802;SDS011;66993;48.256;16.422;2023-07-31T11:11:58;4.8;;;1.6;;
77802;SDS011;66993;48.256;16.422;2023-07-31T11:17:02;4.6;;;1.7;;
77802;SDS011;66993;48.256;16.422;2023-07-31T11:22:01;3.7;;;1.7;;
77802;SDS011;66993;48.256;16.422;2023-07-31T11:27:07;5.4;;;1.8;;
77802;SDS011;66993;48.256;16.422;2023-07-31T11:32:04;4.3;;;1.7;;
77802;SDS011;66993;48.256;16.422;2023-07-31T11:37:05;4.5;;;1.7;;
77802;SDS011;66993;48.256;16.422;2023-07-31T11:42:06;4.7;;;1.7;;
77802;SDS011;66993;48.256;16.422;2023-07-31T11:47:07;4.1;;;1.6;;
77802;SDS011;66993;48.256;16.422;2023-07-31T11:52:09;5.2;;;1.7;;
77802;SDS011;66993;48.256;16.422;2023-07-31T11:57:10;4.8;;;1.6;;
77802;SDS011;66993;48.256;16.422;2023-07-31T12:02:11;4.4;;;1.5;;
77802;SDS011;66993;48.256;16.422;2023-07-31T12:07:13;5.2;;;1.6;;
77802;SDS011;66993;48.256;16.422;2023-07-31T12:12:14;4.7;;;1.7;;
77802;SDS011;66993;48.256;16.422;2023-07-31T12:17:15;6.2;;;1.9;;
77802;SDS011;66993;48.256;16.422;2023-07-31T12:22:16;4.7;;;1.5;;
77802;SDS011;66993;48.256;16.422;2023-07-31T12:27:18;4.9;;;1.5;;
77802;SDS011;66993;48.256;16.422;2023-07-31T12:32:20;4.1;;;1.6;;
77802;SDS011;66993;48.256;16.422;2023-07-31T12:37:20;4.8;;;1.5;;
77802;SDS011;66993;48.256;16.422;2023-07-31T12:42:22;4.8;;;1.6;;
77802;SDS011;66993;48.256;16.422;2023-07-31T12:47:23;6.4;;;1.7;;
77802;SDS011;66993;48.256;16.422;2023-07-31T12:52:24;3.5;;;1.4;;
77802;SDS011;66993;48.256;16.422;2023-07-31T12:57:26;3.2;;;1.9;;
77802;SDS011;66993;48.256;16.422;2023-07-31T13:02:27;4.0;;;1.7;;
77802;SDS011;66993;48.256;16.422;2023-07-31T13:07:28;5.1;;;1.7;;
77802;SDS011;66993;48.256;16.422;2023-07-31T13:12:29;3.8;;;1.7;;
77802;SDS011;66993;48.256;16.422;2023-07-31T13:17:31;4.3;;;1.4;;
77802;SDS011;66993;48.256;16.422;2023-07-31T13:22:32;4.8;;;1.6;;
77802;SDS011;66993;48.256;16.422;2023-07-31T13:27:34;4.4;;;1.5;;
77802;SDS011;66993;48.256;16.422;2023-07-31T13:32:35;4.8;;;1.7;;
77802;SDS011;66993;48.256;16.422;2023-07-31T13:37:36;4.6;;;1.4;;
77802;SDS011;66993;48.256;16.422;2023-07-31T13:42:37;4.2;;;1.6;;
77802;SDS011;66993;48.256;16.422;2023-07-31T13:47:39;2.7;;;1.5;;
77802;SDS011;66993;48.256;16.422;2023-07-31T13:52:40;3.8;;;1.6;;
77802;SDS011;66993;48.256;16.422;2023-07-31T13:57:41;4.0;;;1.9;;
77802;SDS011;66993;48.256;16.422;2023-07-31T14:02:43;3.6;;;1.7;;
77802;SDS011;66993;48.256;16.422;2023-07-31T14:07:44;5.2;;;1.5;;
77802;SDS011;66993;48.256;16.422;2023-07-31T14:12:45;2.8;;;1.3;;
77802;SDS011;66993;48.256;16.422;2023-07-31T14:17:46;4.1;;;1.7;;
77802;SDS011;66993;48.256;16.422;2023-07-31T14:22:48;4.2;;;1.5;;
77802;SDS011;66993;48.256;16.422;2023-07-31T14:27:50;3.8;;;1.4;;
77802;SDS011;66993;48.256;16.422;2023-07-31T14:32:50;4.0;;;1.7;;
77802;SDS011;66993;48.256;16.422;2023-07-31T14:37:52;4.3;;;1.7;;
77802;SDS011;66993;48.256;16.422;2023-07-31T14:42:53;3.7;;;1.6;;
77802;SDS011;66993;48.256;16.422;2023-07-31T14:47:54;4.8;;;1.7;;
77802;SDS011;66993;48.256;16.422;2023-07-31T14:52:56;3.5;;;1.5;;
77802;SDS011;66993;48.256;16.422;2023-07-31T14:57:57;3.8;;;1.7;;
77802;SDS011;66993;48.256;16.422;2023-07-31T15:02:58;3.6;;;1.8;;
77802;SDS011;66993;48.256;16.422;2023-07-31T15:08:00;3.9;;;1.8;;
77802;SDS011;66993;48.256;16.422;2023-07-31T15:13:01;3.8;;;1.6;;
77802;SDS011;66993;48.256;16.422;2023-07-31T15:18:02;4.8;;;1.6;;
77802;SDS011;66993;48.256;16.422;2023-07-31T15:23:03;4.9;;;1.8;;
77802;SDS011;66993;48.256;16.422;2023-07-31T15:28:05;4.5;;;1.8;;
77802;SDS011;66993;48.256;16.422;2023-07-31T15:33:06;3.8;;;1.6;;
77802;SDS011;66993;48.256;16.422;2023-07-31T15:38:08;3.9;;;1.5;;
77802;SDS011;66993;48.256;16.422;2023-07-31T15:43:09;5.2;;;1.7;;
77802;SDS011;66993;48.256;16.422;2023-07-31T15:48:10;4.3;;;1.7;;
77802;SDS011;66993;48.256;16.422;2023-07-31T15:53:11;4.6;;;1.7;;
77802;SDS011;66993;48.256;16.422;2023-07-31T15:58:13;4.7;;;1.7;;
77802;SDS011;66993;48.256;16.422;2023-07-31T16:03:14;3.2;;;1.6;;
77802;SDS011;66993;48.256;16.422;2023-07-31T16:08:16;3.8;;;1.7;;
77802;SDS011;66993;48.256;16.422;2023-07-31T16:13:17;3.6;;;1.6;;
77802;SDS011;66993;48.256;16.422;2023-07-31T16:18:18;3.6;;;1.9;;
77802;SDS011;66993;48.256;16.422;2023-07-31T16:23:20;3.0;;;1.7;;
77802;SDS011;66993;48.256;16.422;2023-07-31T16:28:21;3.9;;;1.7;;
77802;SDS011;66993;48.256;16.422;2023-07-31T16:33:22;3.8;;;1.9;;
77802;SDS011;66993;48.256;16.422;2023-07-31T16:38:24;5.3;;;2.0;;
77802;SDS011;66993;48.256;16.422;2023-07-31T16:43:25;5.8;;;2.3;;
77802;SDS011;66993;48.256;16.422;2023-07-31T16:48:26;4.9;;;2.1;;
77802;SDS011;66993;48.256;16.422;2023-07-31T16:53:27;3.5;;;1.8;;
77802;SDS011;66993;48.256;16.422;2023-07-31T16:58:29;4.3;;;2.0;;
77802;SDS011;66993;48.256;16.422;2023-07-31T17:03:30;4.6;;;1.9;;
77802;SDS011;66993;48.256;16.422;2023-07-31T17:08:31;4.9;;;2.1;;
77802;SDS011;66993;48.256;16.422;2023-07-31T17:13:33;4.4;;;2.1;;
77802;SDS011;66993;48.256;16.422;2023-07-31T17:18:34;5.6;;;2.3;;
77802;SDS011;66993;48.256;16.422;2023-07-31T17:23:35;3.9;;;1.9;;
77802;SDS011;66993;48.256;16.422;2023-07-31T17:28:37;5.7;;;2.2;;
77802;SDS011;66993;48.256;16.422;2023-07-31T17:33:38;5.0;;;2.0;;
77802;SDS011;66993;48.256;16.422;2023-07-31T17:38:40;4.8;;;2.1;;
77802;SDS011;66993;48.256;16.422;2023-07-31T17:43:40;4.9;;;2.0;;
77802;SDS011;66993;48.256;16.422;2023-07-31T17:48:42;5.5;;;1.9;;
77802;SDS011;66993;48.256;16.422;2023-07-31T17:53:43;5.8;;;2.2;;
77802;SDS011;66993;48.256;16.422;2023-07-31T17:58:45;4.1;;;2.0;;
77802;SDS011;66993;48.256;16.422;2023-07-31T18:03:46;5.0;;;2.0;;
77802;SDS011;66993;48.256;16.422;2023-07-31T18:08:47;5.6;;;2.1;;
77802;SDS011;66993;48.256;16.422;2023-07-31T18:13:48;6.4;;;2.3;;
77802;SDS011;66993;48.256;16.422;2023-07-31T18:18:50;3.9;;;1.9;;
77802;SDS011;66993;48.256;16.422;2023-07-31T18:23:51;4.9;;;2.1;;
77802;SDS011;66993;48.256;16.422;2023-07-31T18:28:52;4.4;;;2.0;;
77802;SDS011;66993;48.256;16.422;2023-07-31T18:33:54;4.8;;;2.1;;
77802;SDS011;66993;48.256;16.422;2023-07-31T18:38:55;3.6;;;2.0;;
77802;SDS011;66993;48.256;16.422;2023-07-31T18:43:57;5.3;;;2.5;;
77802;SDS011;66993;48.256;16.422;2023-07-31T18:48:58;5.4;;;2.7;;
77802;SDS011;66993;48.256;16.422;2023-07-31T18:53:59;5.9;;;2.5;;
77802;SDS011;66993;48.256;16.422;2023-07-31T18:59:00;6.3;;;2.6;;
77802;SDS011;66993;48.256;16.422;2023-07-31T19:04:02;4.0;;;2.2;;
77802;SDS011;66993;48.256;16.422;2023-07-31T19:09:04;5.9;;;2.6;;
77802;SDS011;66993;48.256;16.422;2023-07-31T19:14:04;5.4;;;2.8;;
77802;SDS011;66993;48.256;16.422;2023-07-31T19:19:06;6.7;;;3.0;;
77802;SDS011;66993;48.256;16.422;2023-07-31T19:24:07;7.0;;;3.0;;
77802;SDS011;66993;48.256;16.422;2023-07-31T19:29:08;5.2;;;2.6;;
77802;SDS011;66993;48.256;16.422;2023-07-31T19:34:10;5.3;;;2.7;;
77802;SDS011;66993;48.256;16.422;2023-07-31T19:39:11;4.9;;;2.9;;
77802;SDS011;66993;48.256;16.422;2023-07-31T19:44:12;4.4;;;2.9;;
77802;SDS011;66993;48.256;16.422;2023-07-31T19:49:14;6.0;;;3.3;;
77802;SDS011;66993;48.256;16.422;2023-07-31T19:54:15;5.7;;;2.6;;
77802;SDS011;66993;48.256;16.422;2023-07-31T19:59:17;6.1;;;2.6;;
77802;SDS011;66993;48.256;16.422;2023-07-31T20:04:17;6.4;;;3.3;;
77802;SDS011;66993;48.256;16.422;2023-07-31T20:09:19;6.2;;;3.4;;
77802;SDS011;66993;48.256;16.422;2023-07-31T20:14:20;6.4;;;3.0;;
77802;SDS011;66993;48.256;16.422;2023-07-31T20:19:21;6.2;;;3.1;;
77802;SDS011;66993;48.256;16.422;2023-07-31T20:24:23;6.8;;;3.3;;
77802;SDS011;66993;48.256;16.422;2023-07-31T20:29:24;5.6;;;3.4;;
77802;SDS011;66993;48.256;16.422;2023-07-31T20:34:25;6.0;;;3.3;;
77802;SDS011;66993;48.256;16.422;2023-07-31T20:39:27;7.1;;;3.3;;
77802;SDS011;66993;48.256;16.422;2023-07-31T20:44:28;5.1;;;3.1;;
77802;SDS011;66993;48.256;16.422;2023-07-31T20:49:30;4.5;;;2.8;;
77802;SDS011;66993;48.256;16.422;2023-07-31T20:54:31;7.0;;;3.6;;
77802;SDS011;66993;48.256;16.422;2023-07-31T20:59:32;5.4;;;3.4;;
77802;SDS011;66993;48.256;16.422;2023-07-31T21:04:33;6.5;;;3.4;;
77802;SDS011;66993;48.256;16.422;2023-07-31T21:09:35;5.9;;;3.1;;
77802;SDS011;66993;48.256;16.422;2023-07-31T21:14:36;6.9;;;3.8;;
77802;SDS011;66993;48.256;16.422;2023-07-31T21:19:41;7.4;;;3.9;;
77802;SDS011;66993;48.256;16.422;2023-07-31T21:24:38;6.6;;;3.3;;
77802;SDS011;66993;48.256;16.422;2023-07-31T21:29:40;7.2;;;3.3;;
77802;SDS011;66993;48.256;16.422;2023-07-31T21:34:41;5.2;;;3.0;;
77802;SDS011;66993;48.256;16.422;2023-07-31T21:39:43;6.1;;;3.4;;
77802;SDS011;66993;48.256;16.422;2023-07-31T21:44:44;7.7;;;3.9;;
77802;SDS011;66993;48.256;16.422;2023-07-31T21:49:45;7.0;;;3.7;;
77802;SDS011;66993;48.256;16.422;2023-07-31T21:54:46;8.4;;;5.0;;
77802;SDS011;66993;48.256;16.422;2023-07-31T21:59:48;8.6;;;4.9;;
77802;SDS011;66993;48.256;16.422;2023-07-31T22:04:49;6.8;;;3.8;;
77802;SDS011;66993;48.256;16.422;2023-07-31T22:09:50;6.2;;;4.3;;
77802;SDS011;66993;48.256;16.422;2023-07-31T22:14:51;5.6;;;3.8;;
77802;SDS011;66993;48.256;16.422;2023-07-31T22:19:53;7.6;;;4.3;;
77802;SDS011;66993;48.256;16.422;2023-07-31T22:24:54;7.8;;;4.2;;
77802;SDS011;66993;48.256;16.422;2023-07-31T22:29:55;7.9;;;3.8;;
77802;SDS011;66993;48.256;16.422;2023-07-31T22:34:57;6.4;;;4.0;;
77802;SDS011;66993;48.256;16.422;2023-07-31T22:39:58;6.7;;;4.3;;
77802;SDS011;66993;48.256;16.422;2023-07-31T22:44:59;8.0;;;4.7;;
77802;SDS011;66993;48.256;16.422;2023-07-31T22:50:00;7.0;;;4.5;;
77802;SDS011;66993;48.256;16.422;2023-07-31T22:55:02;7.1;;;4.0;;
77802;SDS011;66993;48.256;16.422;2023-07-31T23:00:04;7.2;;;4.3;;
77802;SDS011;66993;48.256;16.422;2023-07-31T23:05:04;6.8;;;4.2;;
77802;SDS011;66993;48.256;16.422;2023-07-31T23:10:06;6.8;;;4.0;;
77802;SDS011;66993;48.256;16.422;2023-07-31T23:15:07;6.7;;;3.9;;
77802;SDS011;66993;48.256;16.422;2023-07-31T23:20:09;6.3;;;4.2;;
77802;SDS011;66993;48.256;16.422;2023-07-31T23:25:09;7.0;;;4.3;;
77802;SDS011;66993;48.256;16.422;2023-07-31T23:30:11;7.3;;;4.3;;
77802;SDS011;66993;48.256;16.422;2023-07-31T23:35:12;9.6;;;4.3;;
77802;SDS011;66993;48.256;16.422;2023-07-31T23:40:14;8.1;;;3.9;;
77802;SDS011;66993;48.256;16.422;2023-07-31T23:45:15;8.1;;;4.3;;
77802;SDS011;66993;48.256;16.422;2023-07-31T23:50:16;7.0;;;4.1;;
77802;SDS011;66993;48.256;16.422;2023-07-31T23:55:17;7.1;;;4.0;;
